Palm Beach, FL

1:29 PM EDT on July 23, 2016 (GMT -0400)
APRSWXNET | | Change Station

Elev 13 ft 26.64 °N, 80.04 °W | Updated 26 minutes ago

Overcast
Overcast
91 °F
Feels Like 106 °F
N
Wind Variable Wind from North
Gusts 0.0 mph

Today
High -- | Low -- °F
--% Chance of Precip.
Yesterday
High -- | Low -- °F
Precip. -- in
Pressure 30.06 in
Visibility 7.0 miles
Clouds Scattered Clouds 3100 ft
Mostly Cloudy 9000 ft
Mostly Cloudy 25000 ft
Heat Index 106 °F
Dew Point 78 °F
Humidity 66%
Rainfall in
Snow Depth Not available.
6:40 AM 8:12 PM
Waning Gibbous, 84% visible
METAR KPBI 231653Z VRB06KT 7SM -TSRA SCT031CB BKN090 BKN250 31/23 A3006 RMK AO2 RAB51 TSB44 SLP178 OCNL LTGICCCCG OHD-S-N TS OHD-S-N MOV S TCU DSNT E-SE P0000 T03060228 $
Pressure 30.06 in
Visibility 7.0 miles
Clouds Scattered Clouds 3100 ft
Mostly Cloudy 9000 ft
Mostly Cloudy 25000 ft
Heat Index 106 °F
Dew Point 78 °F
Humidity 66%
Rainfall in
Snow Depth Not available.
6:40 AM 8:12 PM
Waning Gibbous, 84% visible
METAR KPBI 231653Z VRB06KT 7SM -TSRA SCT031CB BKN090 BKN250 31/23 A3006 RMK AO2 RAB51 TSB44 SLP178 OCNL LTGICCCCG OHD-S-N TS OHD-S-N MOV S TCU DSNT E-SE P0000 T03060228 $

10-Day Weather Forecast

Almanac

Astronomy

Jul. 23, 2016 Rise Set
Actual Time
Civil Twilight
Nautical Twilight
Astronomical Twilight
Moon
Length of Visible Light
Length of Day
Tomorrow will be .
, % of the Moon is Illuminated

Today's Extremes

State Highs State Lows

Community

WunderPhotos

Upload Photos

1,926,875 photos uploaded!

WunderBlog® & News

Nearby

Air Quality

  Air Quality AQ Index Pollutant
Not available.

Snow Depth

Station Depth Elevation

Earthquake Activity

City Distance Mag. Time & Date
Minimum magnitude displayed is 2.5.

Coastal Water Temperatures

Place Temperature

Stations

Nearby Weather Stations

Station Location Temp. Windchill Dew Point Humidity Wind Precip. Elev Updated Type
                   

Watches & Warnings

There are currently no watches in effect.